sensor_id;sensor_type;location;lat;lon;timestamp;temperature;humidity
39103;DHT22;24847;48.218;16.414;2023-01-29T00:02:04;-0.20;99.90
39103;DHT22;24847;48.218;16.414;2023-01-29T00:07:06;-0.20;99.90
39103;DHT22;24847;48.218;16.414;2023-01-29T00:12:08;-0.30;99.90
39103;DHT22;24847;48.218;16.414;2023-01-29T00:17:12;-0.30;99.90
39103;DHT22;24847;48.218;16.414;2023-01-29T00:22:15;-0.30;99.90
39103;DHT22;24847;48.218;16.414;2023-01-29T00:27:17;-0.30;99.90
39103;DHT22;24847;48.218;16.414;2023-01-29T00:32:21;-0.30;99.90
39103;DHT22;24847;48.218;16.414;2023-01-29T00:37:23;-0.20;99.90
39103;DHT22;24847;48.218;16.414;2023-01-29T00:42:25;-0.40;99.90
39103;DHT22;24847;48.218;16.414;2023-01-29T00:47:46;-0.40;99.90
39103;DHT22;24847;48.218;16.414;2023-01-29T00:52:49;-0.30;99.90
39103;DHT22;24847;48.218;16.414;2023-01-29T00:57:52;-0.50;99.90
39103;DHT22;24847;48.218;16.414;2023-01-29T01:02:56;-0.40;99.90
39103;DHT22;24847;48.218;16.414;2023-01-29T01:08:08;-0.40;99.90
39103;DHT22;24847;48.218;16.414;2023-01-29T01:13:25;-0.40;99.90
39103;DHT22;24847;48.218;16.414;2023-01-29T01:18:29;-0.50;99.90
39103;DHT22;24847;48.218;16.414;2023-01-29T01:23:32;-0.60;99.90
39103;DHT22;24847;48.218;16.414;2023-01-29T01:28:35;-0.60;99.90
39103;DHT22;24847;48.218;16.414;2023-01-29T01:33:39;-0.50;99.90
39103;DHT22;24847;48.218;16.414;2023-01-29T01:38:41;-0.50;99.90
39103;DHT22;24847;48.218;16.414;2023-01-29T01:43:49;-0.60;99.90
39103;DHT22;24847;48.218;16.414;2023-01-29T01:48:58;-0.50;99.90
39103;DHT22;24847;48.218;16.414;2023-01-29T01:54:05;-0.50;99.90
39103;DHT22;24847;48.218;16.414;2023-01-29T01:59:11;-0.70;99.90
39103;DHT22;24847;48.218;16.414;2023-01-29T02:04:20;-0.70;99.90
39103;DHT22;24847;48.218;16.414;2023-01-29T02:09:45;-0.70;99.90
39103;DHT22;24847;48.218;16.414;2023-01-29T02:14:51;-0.60;99.90
39103;DHT22;24847;48.218;16.414;2023-01-29T02:20:00;-0.60;99.90
39103;DHT22;24847;48.218;16.414;2023-01-29T02:30:50;-0.80;99.90
39103;DHT22;24847;48.218;16.414;2023-01-29T02:36:01;-0.80;99.90
39103;DHT22;24847;48.218;16.414;2023-01-29T02:41:13;-0.80;99.90
39103;DHT22;24847;48.218;16.414;2023-01-29T02:46:22;-0.90;99.90
39103;DHT22;24847;48.218;16.414;2023-01-29T02:51:33;-0.80;99.90
39103;DHT22;24847;48.218;16.414;2023-01-29T02:56:43;-0.90;99.90
39103;DHT22;24847;48.218;16.414;2023-01-29T03:01:52;-0.90;99.90
39103;DHT22;24847;48.218;16.414;2023-01-29T03:06:59;-1.00;99.90
39103;DHT22;24847;48.218;16.414;2023-01-29T03:12:08;-1.00;99.90
39103;DHT22;24847;48.218;16.414;2023-01-29T03:17:34;-1.00;99.90
39103;DHT22;24847;48.218;16.414;2023-01-29T03:22:44;-0.90;99.90
39103;DHT22;24847;48.218;16.414;2023-01-29T03:27:52;-1.00;99.90
39103;DHT22;24847;48.218;16.414;2023-01-29T03:33:17;-0.90;99.90
39103;DHT22;24847;48.218;16.414;2023-01-29T03:38:20;-1.00;99.90
39103;DHT22;24847;48.218;16.414;2023-01-29T03:43:32;-1.00;99.90
39103;DHT22;24847;48.218;16.414;2023-01-29T03:48:45;-1.00;99.90
39103;DHT22;24847;48.218;16.414;2023-01-29T03:53:57;-1.10;99.90
39103;DHT22;24847;48.218;16.414;2023-01-29T03:59:14;-1.20;99.90
39103;DHT22;24847;48.218;16.414;2023-01-29T04:04:25;-1.20;99.90
39103;DHT22;24847;48.218;16.414;2023-01-29T04:09:31;-1.10;99.90
39103;DHT22;24847;48.218;16.414;2023-01-29T04:14:36;-1.10;99.90
39103;DHT22;24847;48.218;16.414;2023-01-29T04:19:41;-1.10;99.90
39103;DHT22;24847;48.218;16.414;2023-01-29T04:24:43;-1.20;99.90
39103;DHT22;24847;48.218;16.414;2023-01-29T04:29:56;-1.20;99.90
39103;DHT22;24847;48.218;16.414;2023-01-29T04:35:16;-1.40;99.90
39103;DHT22;24847;48.218;16.414;2023-01-29T04:40:34;-1.30;99.90
39103;DHT22;24847;48.218;16.414;2023-01-29T04:45:49;-1.10;99.90
39103;DHT22;24847;48.218;16.414;2023-01-29T04:51:07;-1.30;99.90
39103;DHT22;24847;48.218;16.414;2023-01-29T04:56:19;-1.10;99.90
39103;DHT22;24847;48.218;16.414;2023-01-29T05:01:26;-1.30;99.90
39103;DHT22;24847;48.218;16.414;2023-01-29T05:06:35;-1.50;99.90
39103;DHT22;24847;48.218;16.414;2023-01-29T05:11:38;-1.40;99.90
39103;DHT22;24847;48.218;16.414;2023-01-29T05:16:43;-1.70;99.90
39103;DHT22;24847;48.218;16.414;2023-01-29T05:21:49;-1.60;99.90
39103;DHT22;24847;48.218;16.414;2023-01-29T05:26:53;-1.50;99.90
39103;DHT22;24847;48.218;16.414;2023-01-29T05:32:13;-1.60;99.90
39103;DHT22;24847;48.218;16.414;2023-01-29T05:37:17;-1.60;99.90
39103;DHT22;24847;48.218;16.414;2023-01-29T05:42:20;-1.70;99.90
39103;DHT22;24847;48.218;16.414;2023-01-29T05:47:22;-1.70;99.90
39103;DHT22;24847;48.218;16.414;2023-01-29T05:52:26;-1.90;99.90
39103;DHT22;24847;48.218;16.414;2023-01-29T05:57:28;-1.90;99.90
39103;DHT22;24847;48.218;16.414;2023-01-29T06:02:30;-1.90;99.90
39103;DHT22;24847;48.218;16.414;2023-01-29T06:07:34;-2.10;99.90
39103;DHT22;24847;48.218;16.414;2023-01-29T06:12:36;-2.10;99.90
39103;DHT22;24847;48.218;16.414;2023-01-29T06:17:39;-1.90;99.90
39103;DHT22;24847;48.218;16.414;2023-01-29T06:22:42;-1.90;99.90
39103;DHT22;24847;48.218;16.414;2023-01-29T06:27:45;-2.10;99.90
39103;DHT22;24847;48.218;16.414;2023-01-29T06:32:47;-2.00;99.90
39103;DHT22;24847;48.218;16.414;2023-01-29T06:37:51;-2.30;99.90
39103;DHT22;24847;48.218;16.414;2023-01-29T06:42:53;-2.20;99.90
39103;DHT22;24847;48.218;16.414;2023-01-29T06:47:55;-2.30;99.90
39103;DHT22;24847;48.218;16.414;2023-01-29T06:52:59;-2.30;99.90
39103;DHT22;24847;48.218;16.414;2023-01-29T06:58:04;-2.20;99.90
39103;DHT22;24847;48.218;16.414;2023-01-29T07:03:08;-2.40;99.90
39103;DHT22;24847;48.218;16.414;2023-01-29T07:08:12;-2.40;99.90
39103;DHT22;24847;48.218;16.414;2023-01-29T07:13:15;-2.30;99.90
39103;DHT22;24847;48.218;16.414;2023-01-29T07:18:18;-2.30;99.90
39103;DHT22;24847;48.218;16.414;2023-01-29T07:23:22;-2.50;99.90
39103;DHT22;24847;48.218;16.414;2023-01-29T07:28:24;-2.40;99.90
39103;DHT22;24847;48.218;16.414;2023-01-29T07:33:27;-2.30;99.90
39103;DHT22;24847;48.218;16.414;2023-01-29T07:38:31;-2.30;99.90
39103;DHT22;24847;48.218;16.414;2023-01-29T07:43:33;-2.30;99.90
39103;DHT22;24847;48.218;16.414;2023-01-29T07:48:35;-2.30;99.90
39103;DHT22;24847;48.218;16.414;2023-01-29T07:53:39;-2.10;99.90
39103;DHT22;24847;48.218;16.414;2023-01-29T07:58:41;-2.30;99.90
39103;DHT22;24847;48.218;16.414;2023-01-29T08:03:44;-2.30;99.90
39103;DHT22;24847;48.218;16.414;2023-01-29T08:08:47;-2.30;99.90
39103;DHT22;24847;48.218;16.414;2023-01-29T08:13:49;-2.40;99.90
39103;DHT22;24847;48.218;16.414;2023-01-29T08:18:52;-2.30;99.90
39103;DHT22;24847;48.218;16.414;2023-01-29T08:24:03;-2.20;99.90
39103;DHT22;24847;48.218;16.414;2023-01-29T08:29:10;-2.00;99.90
39103;DHT22;24847;48.218;16.414;2023-01-29T08:34:12;-2.00;99.90
39103;DHT22;24847;48.218;16.414;2023-01-29T08:39:16;-1.90;99.90
39103;DHT22;24847;48.218;16.414;2023-01-29T08:44:18;-1.80;99.90
39103;DHT22;24847;48.218;16.414;2023-01-29T08:49:20;-1.90;99.90
39103;DHT22;24847;48.218;16.414;2023-01-29T08:54:24;-1.80;99.90
39103;DHT22;24847;48.218;16.414;2023-01-29T08:59:26;-1.70;99.90
39103;DHT22;24847;48.218;16.414;2023-01-29T09:04:28;-1.90;99.90
39103;DHT22;24847;48.218;16.414;2023-01-29T09:09:32;-1.90;99.90
39103;DHT22;24847;48.218;16.414;2023-01-29T09:14:34;-2.00;99.90
39103;DHT22;24847;48.218;16.414;2023-01-29T09:19:36;-1.80;99.90
39103;DHT22;24847;48.218;16.414;2023-01-29T09:24:40;-2.00;99.90
39103;DHT22;24847;48.218;16.414;2023-01-29T09:29:42;-2.00;99.90
39103;DHT22;24847;48.218;16.414;2023-01-29T09:34:45;-2.00;99.90
39103;DHT22;24847;48.218;16.414;2023-01-29T09:39:48;-1.70;99.90
39103;DHT22;24847;48.218;16.414;2023-01-29T09:44:58;-1.70;99.90
39103;DHT22;24847;48.218;16.414;2023-01-29T09:50:07;-1.70;99.90
39103;DHT22;24847;48.218;16.414;2023-01-29T09:55:21;-1.60;99.90
39103;DHT22;24847;48.218;16.414;2023-01-29T10:00:27;-1.40;99.90
39103;DHT22;24847;48.218;16.414;2023-01-29T10:05:53;-1.40;99.90
39103;DHT22;24847;48.218;16.414;2023-01-29T10:11:17;-1.30;99.90
39103;DHT22;24847;48.218;16.414;2023-01-29T10:16:36;-1.20;99.90
39103;DHT22;24847;48.218;16.414;2023-01-29T10:27:32;-1.20;99.90
39103;DHT22;24847;48.218;16.414;2023-01-29T10:32:38;-1.00;99.90
39103;DHT22;24847;48.218;16.414;2023-01-29T10:37:42;-1.50;99.90
39103;DHT22;24847;48.218;16.414;2023-01-29T10:42:48;-1.20;99.90
39103;DHT22;24847;48.218;16.414;2023-01-29T10:53:44;-0.80;99.90
39103;DHT22;24847;48.218;16.414;2023-01-29T10:58:54;-1.00;99.90
39103;DHT22;24847;48.218;16.414;2023-01-29T11:04:00;-1.10;99.90
39103;DHT22;24847;48.218;16.414;2023-01-29T11:09:08;-1.00;99.90
39103;DHT22;24847;48.218;16.414;2023-01-29T11:14:17;-1.10;99.90
39103;DHT22;24847;48.218;16.414;2023-01-29T11:19:36;-1.00;99.90
39103;DHT22;24847;48.218;16.414;2023-01-29T11:24:39;-1.20;99.90
39103;DHT22;24847;48.218;16.414;2023-01-29T11:29:44;-1.10;99.90
39103;DHT22;24847;48.218;16.414;2023-01-29T11:35:01;-0.60;99.90
39103;DHT22;24847;48.218;16.414;2023-01-29T11:40:33;-0.10;99.90
39103;DHT22;24847;48.218;16.414;2023-01-29T11:45:39;-0.10;99.90
39103;DHT22;24847;48.218;16.414;2023-01-29T11:50:42;-0.30;99.90
39103;DHT22;24847;48.218;16.414;2023-01-29T11:55:45;-0.20;99.90
39103;DHT22;24847;48.218;16.414;2023-01-29T12:00:50;-0.30;99.90
39103;DHT22;24847;48.218;16.414;2023-01-29T12:05:57;-0.30;99.90
39103;DHT22;24847;48.218;16.414;2023-01-29T12:11:10;1.50;99.90
39103;DHT22;24847;48.218;16.414;2023-01-29T12:16:21;1.70;99.90
39103;DHT22;24847;48.218;16.414;2023-01-29T12:21:31;2.40;99.90
39103;DHT22;24847;48.218;16.414;2023-01-29T12:26:38;2.10;99.90
39103;DHT22;24847;48.218;16.414;2023-01-29T12:31:50;2.60;99.90
39103;DHT22;24847;48.218;16.414;2023-01-29T12:37:01;2.40;99.90
39103;DHT22;24847;48.218;16.414;2023-01-29T12:42:14;1.90;99.90
39103;DHT22;24847;48.218;16.414;2023-01-29T12:47:24;1.90;99.90
39103;DHT22;24847;48.218;16.414;2023-01-29T12:52:36;1.30;99.90
39103;DHT22;24847;48.218;16.414;2023-01-29T12:57:45;1.20;99.90
39103;DHT22;24847;48.218;16.414;2023-01-29T13:02:57;0.30;99.90
39103;DHT22;24847;48.218;16.414;2023-01-29T13:08:04;0.90;99.90
39103;DHT22;24847;48.218;16.414;2023-01-29T13:13:14;0.50;99.90
39103;DHT22;24847;48.218;16.414;2023-01-29T13:18:35;0.40;99.90
39103;DHT22;24847;48.218;16.414;2023-01-29T13:23:44;0.40;99.90
39103;DHT22;24847;48.218;16.414;2023-01-29T13:28:48;0.30;99.90
39103;DHT22;24847;48.218;16.414;2023-01-29T13:33:58;0.30;99.90
39103;DHT22;24847;48.218;16.414;2023-01-29T13:39:07;0.20;99.90
39103;DHT22;24847;48.218;16.414;2023-01-29T13:44:22;0.00;99.90
39103;DHT22;24847;48.218;16.414;2023-01-29T13:49:34;-0.10;99.90
39103;DHT22;24847;48.218;16.414;2023-01-29T13:54:38;-0.10;99.90
39103;DHT22;24847;48.218;16.414;2023-01-29T13:59:50;-0.20;99.90
39103;DHT22;24847;48.218;16.414;2023-01-29T14:05:35;-0.10;99.90
39103;DHT22;24847;48.218;16.414;2023-01-29T14:10:42;-0.10;99.90
39103;DHT22;24847;48.218;16.414;2023-01-29T14:15:45;-0.10;99.90
39103;DHT22;24847;48.218;16.414;2023-01-29T14:21:28;0.00;99.90
39103;DHT22;24847;48.218;16.414;2023-01-29T14:26:39;0.10;99.90
39103;DHT22;24847;48.218;16.414;2023-01-29T14:31:49;0.00;99.90
39103;DHT22;24847;48.218;16.414;2023-01-29T14:36:57;-0.20;99.90
39103;DHT22;24847;48.218;16.414;2023-01-29T14:42:13;-0.10;99.90
39103;DHT22;24847;48.218;16.414;2023-01-29T14:47:19;0.00;99.90
39103;DHT22;24847;48.218;16.414;2023-01-29T14:52:28;0.00;99.90
39103;DHT22;24847;48.218;16.414;2023-01-29T14:57:35;0.00;99.90
39103;DHT22;24847;48.218;16.414;2023-01-29T15:02:40;-0.10;99.90
39103;DHT22;24847;48.218;16.414;2023-01-29T15:07:53;-0.20;99.90
39103;DHT22;24847;48.218;16.414;2023-01-29T15:13:00;-0.30;99.90
39103;DHT22;24847;48.218;16.414;2023-01-29T15:18:08;-0.40;99.90
39103;DHT22;24847;48.218;16.414;2023-01-29T15:23:26;-0.50;99.90
39103;DHT22;24847;48.218;16.414;2023-01-29T15:28:31;-0.60;99.90
39103;DHT22;24847;48.218;16.414;2023-01-29T15:33:35;-0.50;99.90
39103;DHT22;24847;48.218;16.414;2023-01-29T15:38:40;-0.40;99.90
39103;DHT22;24847;48.218;16.414;2023-01-29T15:43:44;-0.50;99.90
39103;DHT22;24847;48.218;16.414;2023-01-29T15:48:49;-0.50;99.90
39103;DHT22;24847;48.218;16.414;2023-01-29T15:53:59;-0.70;99.90
39103;DHT22;24847;48.218;16.414;2023-01-29T15:59:05;-0.80;99.90
39103;DHT22;24847;48.218;16.414;2023-01-29T16:04:14;-0.70;99.90
39103;DHT22;24847;48.218;16.414;2023-01-29T16:09:23;-0.80;99.90
39103;DHT22;24847;48.218;16.414;2023-01-29T16:14:28;-0.80;99.90
39103;DHT22;24847;48.218;16.414;2023-01-29T16:19:31;-0.80;99.90
39103;DHT22;24847;48.218;16.414;2023-01-29T16:24:36;-0.90;99.90
39103;DHT22;24847;48.218;16.414;2023-01-29T16:29:41;-0.70;99.90
39103;DHT22;24847;48.218;16.414;2023-01-29T16:34:45;-0.80;99.90
39103;DHT22;24847;48.218;16.414;2023-01-29T16:39:51;-0.80;99.90
39103;DHT22;24847;48.218;16.414;2023-01-29T16:44:58;-0.80;99.90
39103;DHT22;24847;48.218;16.414;2023-01-29T16:50:22;-0.70;99.90
39103;DHT22;24847;48.218;16.414;2023-01-29T16:55:36;-0.70;99.90
39103;DHT22;24847;48.218;16.414;2023-01-29T17:00:44;-0.90;99.90
39103;DHT22;24847;48.218;16.414;2023-01-29T17:05:48;-0.90;99.90
39103;DHT22;24847;48.218;16.414;2023-01-29T17:10:54;-0.80;99.90
39103;DHT22;24847;48.218;16.414;2023-01-29T17:15:59;-0.90;99.90
39103;DHT22;24847;48.218;16.414;2023-01-29T17:21:04;-0.70;99.90
39103;DHT22;24847;48.218;16.414;2023-01-29T17:26:11;-0.70;99.90
39103;DHT22;24847;48.218;16.414;2023-01-29T17:31:15;-1.00;99.90
39103;DHT22;24847;48.218;16.414;2023-01-29T17:36:19;-1.10;99.90
39103;DHT22;24847;48.218;16.414;2023-01-29T17:41:26;-0.90;99.90
39103;DHT22;24847;48.218;16.414;2023-01-29T17:46:31;-0.80;99.90
39103;DHT22;24847;48.218;16.414;2023-01-29T17:51:36;-0.80;99.90
39103;DHT22;24847;48.218;16.414;2023-01-29T17:56:45;-0.90;99.90
39103;DHT22;24847;48.218;16.414;2023-01-29T18:01:49;-0.90;99.90
39103;DHT22;24847;48.218;16.414;2023-01-29T18:06:55;-1.00;99.90
39103;DHT22;24847;48.218;16.414;2023-01-29T18:12:00;-1.00;99.90
39103;DHT22;24847;48.218;16.414;2023-01-29T18:17:04;-1.10;99.90
39103;DHT22;24847;48.218;16.414;2023-01-29T18:22:07;-1.00;99.90
39103;DHT22;24847;48.218;16.414;2023-01-29T18:27:11;-1.10;99.90
39103;DHT22;24847;48.218;16.414;2023-01-29T18:32:15;-1.10;99.90
39103;DHT22;24847;48.218;16.414;2023-01-29T18:37:19;-1.00;99.90
39103;DHT22;24847;48.218;16.414;2023-01-29T18:42:24;-1.00;99.90
39103;DHT22;24847;48.218;16.414;2023-01-29T18:47:29;-1.10;99.90
39103;DHT22;24847;48.218;16.414;2023-01-29T18:52:32;-1.20;99.90
39103;DHT22;24847;48.218;16.414;2023-01-29T18:57:37;-1.20;99.90
39103;DHT22;24847;48.218;16.414;2023-01-29T19:02:41;-1.30;99.90
39103;DHT22;24847;48.218;16.414;2023-01-29T19:07:49;-1.10;99.90
39103;DHT22;24847;48.218;16.414;2023-01-29T19:12:54;-1.30;99.90
39103;DHT22;24847;48.218;16.414;2023-01-29T19:17:59;-1.10;99.90
39103;DHT22;24847;48.218;16.414;2023-01-29T19:23:04;-1.10;99.90
39103;DHT22;24847;48.218;16.414;2023-01-29T19:28:09;-1.10;99.90
39103;DHT22;24847;48.218;16.414;2023-01-29T19:33:13;-0.90;99.90
39103;DHT22;24847;48.218;16.414;2023-01-29T19:38:16;-0.60;99.90
39103;DHT22;24847;48.218;16.414;2023-01-29T19:43:23;-0.40;99.90
39103;DHT22;24847;48.218;16.414;2023-01-29T19:48:32;-0.50;99.90
39103;DHT22;24847;48.218;16.414;2023-01-29T19:53:36;-0.40;99.90
39103;DHT22;24847;48.218;16.414;2023-01-29T19:58:43;-0.30;99.90
39103;DHT22;24847;48.218;16.414;2023-01-29T20:03:49;-0.30;99.90
39103;DHT22;24847;48.218;16.414;2023-01-29T20:08:53;-0.30;99.90
39103;DHT22;24847;48.218;16.414;2023-01-29T20:14:01;-0.30;99.90
39103;DHT22;24847;48.218;16.414;2023-01-29T20:19:05;-0.40;99.90
39103;DHT22;24847;48.218;16.414;2023-01-29T20:24:11;-0.40;99.90
39103;DHT22;24847;48.218;16.414;2023-01-29T20:29:17;-0.60;99.90
39103;DHT22;24847;48.218;16.414;2023-01-29T20:34:27;-0.80;99.90
39103;DHT22;24847;48.218;16.414;2023-01-29T20:39:31;-1.10;99.90
39103;DHT22;24847;48.218;16.414;2023-01-29T20:44:36;-1.60;99.90
39103;DHT22;24847;48.218;16.414;2023-01-29T20:49:40;-1.60;99.90
39103;DHT22;24847;48.218;16.414;2023-01-29T20:54:44;-1.70;99.90
39103;DHT22;24847;48.218;16.414;2023-01-29T20:59:49;-1.90;99.90
39103;DHT22;24847;48.218;16.414;2023-01-29T21:04:52;-1.90;99.90
39103;DHT22;24847;48.218;16.414;2023-01-29T21:09:58;-2.00;99.90
39103;DHT22;24847;48.218;16.414;2023-01-29T21:15:09;-1.80;99.90
39103;DHT22;24847;48.218;16.414;2023-01-29T21:20:13;-1.90;99.90
39103;DHT22;24847;48.218;16.414;2023-01-29T21:25:16;-2.00;99.90
39103;DHT22;24847;48.218;16.414;2023-01-29T21:30:23;-2.00;99.90
39103;DHT22;24847;48.218;16.414;2023-01-29T21:35:27;-2.00;99.90
39103;DHT22;24847;48.218;16.414;2023-01-29T21:40:30;-2.00;99.90
39103;DHT22;24847;48.218;16.414;2023-01-29T21:45:34;-2.00;99.90
39103;DHT22;24847;48.218;16.414;2023-01-29T21:50:37;-2.10;99.90
39103;DHT22;24847;48.218;16.414;2023-01-29T21:55:40;-1.90;99.90
39103;DHT22;24847;48.218;16.414;2023-01-29T22:00:45;-1.90;99.90
39103;DHT22;24847;48.218;16.414;2023-01-29T22:05:50;-1.70;99.90
39103;DHT22;24847;48.218;16.414;2023-01-29T22:10:53;-1.20;99.90
39103;DHT22;24847;48.218;16.414;2023-01-29T22:15:56;-0.90;99.90
39103;DHT22;24847;48.218;16.414;2023-01-29T22:20:59;-0.70;99.90
39103;DHT22;24847;48.218;16.414;2023-01-29T22:26:03;-0.70;99.90
39103;DHT22;24847;48.218;16.414;2023-01-29T22:31:07;-0.60;99.90
39103;DHT22;24847;48.218;16.414;2023-01-29T22:36:09;-0.70;99.90
39103;DHT22;24847;48.218;16.414;2023-01-29T22:41:12;-0.50;99.90
39103;DHT22;24847;48.218;16.414;2023-01-29T22:46:16;-0.50;99.90
39103;DHT22;24847;48.218;16.414;2023-01-29T22:51:18;-0.40;99.90
39103;DHT22;24847;48.218;16.414;2023-01-29T22:56:22;-0.50;99.90
39103;DHT22;24847;48.218;16.414;2023-01-29T23:01:29;-0.40;99.90
39103;DHT22;24847;48.218;16.414;2023-01-29T23:06:32;-0.40;99.90
39103;DHT22;24847;48.218;16.414;2023-01-29T23:11:34;-0.40;99.90
39103;DHT22;24847;48.218;16.414;2023-01-29T23:16:38;-0.30;99.90
39103;DHT22;24847;48.218;16.414;2023-01-29T23:21:40;-0.40;99.90
39103;DHT22;24847;48.218;16.414;2023-01-29T23:26:43;-0.40;99.90
39103;DHT22;24847;48.218;16.414;2023-01-29T23:32:04;-0.30;99.90
39103;DHT22;24847;48.218;16.414;2023-01-29T23:37:07;-0.20;99.90
39103;DHT22;24847;48.218;16.414;2023-01-29T23:42:09;-0.30;99.90
39103;DHT22;24847;48.218;16.414;2023-01-29T23:47:13;-0.30;99.90
39103;DHT22;24847;48.218;16.414;2023-01-29T23:52:15;-0.30;99.90
39103;DHT22;24847;48.218;16.414;2023-01-29T23:57:18;-0.20;99.90
